Time;durP1;ratioP1;P1;durP2;ratioP2;P2;SDS_P1;SDS_P2;PMS_P1;PMS_P2;Temp;Humidity;BMP_temperature;BMP_pressure;BME280_temperature;BME280_humidity;BME280_pressure;Samples;Min_cycle;Max_cycle;Signal;HPM_P1;HPM_P2
2023/01/04 00:01:18;;;;;;;5.28;2.95;;;9.50;39.60;;;;;;5093442;28;20257;-51
2023/01/04 00:03:44;;;;;;;4.75;2.60;;;9.60;39.70;;;;;;5093391;28;20641;-50
2023/01/04 00:06:12;;;;;;;4.50;2.33;;;9.50;39.90;;;;;;5093045;28;20277;-51
2023/01/04 00:08:38;;;;;;;4.97;2.92;;;9.50;40.00;;;;;;5093580;28;20859;-51
2023/01/04 00:11:18;;;;;;;4.73;2.77;;;9.50;40.00;;;;;;5093547;28;20254;-50
2023/01/04 00:13:45;;;;;;;4.43;3.30;;;9.50;39.80;;;;;;5093309;28;20550;-51
2023/01/04 00:16:14;;;;;;;5.47;2.60;;;9.50;39.70;;;;;;5092902;28;20200;-51
2023/01/04 00:18:41;;;;;;;3.45;2.42;;;9.50;39.60;;;;;;5093024;28;20189;-51
2023/01/04 00:21:14;;;;;;;6.00;3.10;;;9.50;39.50;;;;;;5093009;28;20186;-50
2023/01/04 00:23:41;;;;;;;6.45;2.90;;;9.40;39.50;;;;;;5093063;28;20258;-50
2023/01/04 00:26:13;;;;;;;5.68;3.20;;;9.40;39.60;;;;;;5092710;28;20203;-51
2023/01/04 00:28:39;;;;;;;6.10;2.80;;;9.40;39.50;;;;;;5092948;28;20165;-50
2023/01/04 00:31:07;;;;;;;4.95;2.53;;;9.30;39.80;;;;;;5092868;28;20214;-50
2023/01/04 00:33:33;;;;;;;4.88;2.70;;;9.30;39.60;;;;;;5092745;28;20174;-50
2023/01/04 00:36:16;;;;;;;4.40;2.63;;;9.30;39.70;;;;;;5092678;28;20588;-51
2023/01/04 00:38:42;;;;;;;3.58;2.60;;;9.30;39.70;;;;;;5092703;28;20207;-51
2023/01/04 00:41:10;;;;;;;4.40;3.60;;;9.30;39.70;;;;;;5092813;28;20536;-50
2023/01/04 00:43:36;;;;;;;3.03;2.60;;;9.20;39.70;;;;;;5092458;28;20563;-50
2023/01/04 00:46:01;;;;;;;3.97;2.13;;;9.30;39.90;;;;;;5092160;28;20176;-51
2023/01/04 00:48:28;;;;;;;6.47;2.57;;;9.20;39.90;;;;;;5092984;28;20294;-51
2023/01/04 00:50:54;;;;;;;5.22;2.55;;;9.30;40.20;;;;;;5092546;28;20498;-51
2023/01/04 00:53:20;;;;;;;3.47;2.40;;;9.30;40.00;;;;;;5092462;28;20270;-51
2023/01/04 00:55:46;;;;;;;3.90;2.70;;;9.30;40.00;;;;;;5092224;28;20189;-51
2023/01/04 00:58:12;;;;;;;6.80;2.80;;;9.30;39.90;;;;;;5092397;28;20202;-51
2023/01/04 01:00:38;;;;;;;2.58;1.85;;;9.30;39.80;;;;;;5092303;28;20488;-51
2023/01/04 01:03:05;;;;;;;4.68;2.88;;;9.40;39.70;;;;;;5092458;28;20172;-50
2023/01/04 01:05:34;;;;;;;3.10;2.45;;;9.30;39.70;;;;;;5092061;28;20239;-50
2023/01/04 01:08:23;;;;;;;4.15;3.10;;;9.30;39.70;;;;;;5092333;28;20210;-50
2023/01/04 01:10:45;;;;;;;7.85;2.60;;;9.30;39.60;;;;;;5092118;28;20177;-51
2023/01/04 01:13:11;;;;;;;6.57;2.90;;;9.20;39.50;;;;;;5092232;28;20178;-51
2023/01/04 01:15:37;;;;;;;4.10;2.77;;;9.20;39.40;;;;;;5092032;28;20624;-50
2023/01/04 01:18:03;;;;;;;4.20;3.37;;;9.20;39.50;;;;;;5092027;28;20365;-50
2023/01/04 01:20:28;;;;;;;6.37;3.40;;;9.10;39.60;;;;;;5092134;28;20168;-50
2023/01/04 01:22:54;;;;;;;6.10;2.63;;;9.10;40.10;;;;;;5092175;28;20171;-50
2023/01/04 01:25:20;;;;;;;4.27;2.90;;;9.00;39.80;;;;;;5092039;28;20181;-50
2023/01/04 01:27:45;;;;;;;4.17;3.47;;;9.00;40.00;;;;;;5091910;28;20202;-50
2023/01/04 01:30:11;;;;;;;4.60;3.00;;;9.00;39.90;;;;;;5092076;28;20237;-51
2023/01/04 01:32:37;;;;;;;3.73;2.30;;;9.00;39.90;;;;;;5092186;28;20709;-51
2023/01/04 01:35:03;;;;;;;3.23;2.70;;;8.90;39.90;;;;;;5091814;28;20403;-50
2023/01/04 01:37:29;;;;;;;4.70;2.03;;;8.90;39.90;;;;;;5091910;28;20217;-50
2023/01/04 01:39:54;;;;;;;5.63;2.33;;;8.90;39.80;;;;;;5091976;28;20426;-50
2023/01/04 01:42:22;;;;;;;6.17;2.93;;;8.90;39.80;;;;;;5091930;28;20632;-50
2023/01/04 01:44:57;;;;;;;3.22;2.33;;;8.90;40.00;;;;;;5091709;28;20255;-50
2023/01/04 01:47:27;;;;;;;3.15;2.33;;;8.80;39.80;;;;;;5092060;28;20197;-50
2023/01/04 01:49:53;;;;;;;4.90;2.22;;;8.80;39.90;;;;;;5092038;28;20190;-50
2023/01/04 01:52:31;;;;;;;7.32;3.10;;;8.80;39.90;;;;;;5091943;28;20177;-51
2023/01/04 01:55:05;;;;;;;8.40;2.42;;;8.80;40.10;;;;;;5093335;28;20164;-51
2023/01/04 01:57:35;;;;;;;4.85;2.92;;;8.80;40.20;;;;;;5095679;28;20192;-50
2023/01/04 02:00:06;;;;;;;4.82;3.25;;;8.70;40.30;;;;;;5095791;28;20165;-50
2023/01/04 02:02:32;;;;;;;4.32;2.72;;;8.70;40.60;;;;;;5096349;28;20203;-50
2023/01/04 02:05:00;;;;;;;3.47;2.38;;;8.70;40.50;;;;;;5095465;28;20164;-50
2023/01/04 02:07:27;;;;;;;4.72;2.45;;;8.70;40.70;;;;;;5095547;28;20663;-50
2023/01/04 02:09:54;;;;;;;5.97;3.40;;;8.60;40.40;;;;;;5095915;28;20565;-51
2023/01/04 02:12:20;;;;;;;3.70;2.67;;;8.60;40.50;;;;;;5095512;28;20180;-50
2023/01/04 02:14:49;;;;;;;8.00;3.00;;;8.60;40.80;;;;;;5095355;28;20179;-50
2023/01/04 02:17:24;;;;;;;4.05;2.42;;;8.60;40.70;;;;;;5095362;28;20260;-50
2023/01/04 02:19:53;;;;;;;5.10;2.25;;;8.60;40.80;;;;;;5095293;28;20208;-51
2023/01/04 02:22:40;;;;;;;7.20;2.65;;;8.60;40.80;;;;;;5095350;28;20208;-51
2023/01/04 02:25:27;;;;;;;4.32;2.13;;;8.60;40.80;;;;;;5095142;28;20163;-50
2023/01/04 02:27:55;;;;;;;2.88;2.35;;;8.60;40.80;;;;;;5095056;28;20210;-50
2023/01/04 02:30:23;;;;;;;4.60;2.85;;;8.60;40.80;;;;;;5095154;28;20560;-50
2023/01/04 02:33:26;;;;;;;3.67;2.38;;;8.60;40.70;;;;;;5095209;28;20582;-50
2023/01/04 02:36:22;;;;;;;4.05;2.65;;;8.60;40.70;;;;;;5094866;28;20248;-50
2023/01/04 02:38:58;;;;;;;4.40;2.85;;;8.60;40.70;;;;;;5095093;28;20532;-50
2023/01/04 02:41:40;;;;;;;3.75;2.60;;;8.50;40.80;;;;;;5095091;28;20254;-50
2023/01/04 02:44:51;;;;;;;4.40;2.10;;;8.50;40.80;;;;;;5094925;28;20184;-50
2023/01/04 02:50:31;;;;;;;3.03;1.73;;;8.50;40.70;;;;;;5095209;28;20274;-50
2023/01/04 02:53:20;;;;;;;2.60;1.83;;;8.40;40.70;;;;;;5094728;28;20168;-50
2023/01/04 02:55:51;;;;;;;2.72;1.75;;;8.40;40.60;;;;;;5093865;28;20185;-51
2023/01/04 02:59:03;;;;;;;4.25;2.30;;;8.40;40.50;;;;;;5094678;28;20200;-50
2023/01/04 03:07:45;;;;;;;3.38;2.30;;;8.40;40.50;;;;;;5012255;28;20598;-50
2023/01/04 03:10:39;;;;;;;3.38;2.08;;;8.40;40.70;;;;;;5012319;28;20237;-50
2023/01/04 03:13:38;;;;;;;11.77;2.67;;;8.30;40.60;;;;;;5012140;28;20182;-50
2023/01/04 03:16:10;;;;;;;4.05;2.38;;;8.30;40.60;;;;;;5011768;28;20185;-50
2023/01/04 03:18:42;;;;;;;3.22;2.08;;;8.30;40.90;;;;;;5011988;28;20210;-50
2023/01/04 03:21:10;;;;;;;3.67;2.50;;;8.30;40.90;;;;;;5012068;28;20635;-50
2023/01/04 03:35:25;;;;;;;5.45;3.15;;;8.40;41.10;;;;;;5073866;28;20739;-50
2023/01/04 03:50:40;;;;;;;4.63;3.50;;;8.40;42.00;;;;;;5071236;28;20207;-50
2023/01/04 03:53:07;;;;;;;8.38;4.38;;;8.40;42.00;;;;;;5071045;28;20191;-50
2023/01/04 03:55:35;;;;;;;4.18;3.75;;;8.40;42.20;;;;;;5070801;28;20564;-50
2023/01/04 03:58:01;;;;;;;7.25;6.03;;;8.40;42.50;;;;;;5070810;28;20334;-50
2023/01/04 04:00:27;;;;;;;5.90;4.27;;;8.50;42.70;;;;;;5070942;28;20194;-50
2023/01/04 04:03:05;;;;;;;6.10;5.30;;;8.50;42.60;;;;;;5070899;28;20438;-50
2023/01/04 04:08:24;;;;;;;7.20;4.97;;;8.60;42.80;;;;;;5071049;28;20243;-49
2023/01/04 04:10:50;;;;;;;10.65;6.22;;;8.60;42.90;;;;;;5070761;28;20280;-50
2023/01/04 04:13:16;;;;;;;12.23;6.10;;;8.60;42.70;;;;;;5070640;28;20180;-51
2023/01/04 04:15:41;;;;;;;7.13;5.90;;;8.60;42.60;;;;;;5070525;28;20318;-50
2023/01/04 04:18:07;;;;;;;7.60;5.67;;;8.70;43.00;;;;;;5083593;28;20673;-50
2023/01/04 04:20:34;;;;;;;7.50;6.63;;;8.70;43.00;;;;;;5093095;28;20775;-50
2023/01/04 04:22:59;;;;;;;8.32;6.43;;;8.70;43.00;;;;;;5093062;28;20170;-50
2023/01/04 04:25:25;;;;;;;9.20;7.33;;;8.70;43.20;;;;;;5092769;28;20164;-51
2023/01/04 04:27:51;;;;;;;9.40;7.03;;;8.70;43.50;;;;;;5092915;28;20195;-51
2023/01/04 04:30:17;;;;;;;9.30;7.40;;;8.70;43.50;;;;;;5093145;28;20180;-51
2023/01/04 04:32:42;;;;;;;9.03;6.73;;;8.80;43.00;;;;;;5092824;28;20168;-51
2023/01/04 04:35:08;;;;;;;8.87;6.40;;;8.80;43.10;;;;;;5092681;28;20187;-50
2023/01/04 04:37:36;;;;;;;9.98;6.95;;;8.90;43.10;;;;;;5092561;28;20575;-50
2023/01/04 04:40:02;;;;;;;11.60;6.85;;;8.90;43.30;;;;;;5092725;28;20172;-51
2023/01/04 04:42:28;;;;;;;13.30;6.50;;;8.90;43.10;;;;;;5092754;28;20222;-50
2023/01/04 04:44:54;;;;;;;8.80;6.68;;;8.90;42.80;;;;;;5092481;28;20674;-50
2023/01/04 04:47:20;;;;;;;9.57;7.60;;;8.90;43.00;;;;;;5092528;28;20216;-49
2023/01/04 04:49:46;;;;;;;8.63;7.37;;;8.90;42.80;;;;;;5092570;28;20533;-51
2023/01/04 04:52:11;;;;;;;7.97;7.10;;;8.90;42.60;;;;;;5092521;28;20176;-50
2023/01/04 04:54:37;;;;;;;10.57;7.73;;;8.90;43.00;;;;;;5092320;28;20606;-50
2023/01/04 04:57:03;;;;;;;14.93;6.50;;;8.90;43.80;;;;;;5092596;28;20188;-50
2023/01/04 04:59:28;;;;;;;8.03;6.20;;;8.90;43.00;;;;;;5092548;28;20198;-50
2023/01/04 05:01:54;;;;;;;8.80;6.33;;;8.90;42.80;;;;;;5092326;28;20226;-51
2023/01/04 05:04:20;;;;;;;12.73;6.37;;;8.90;42.80;;;;;;5092297;28;20165;-50
2023/01/04 05:06:48;;;;;;;7.50;6.60;;;8.90;42.80;;;;;;5092267;28;20249;-51
2023/01/04 05:09:14;;;;;;;8.25;6.25;;;8.90;43.00;;;;;;5092317;28;20168;-50
2023/01/04 05:14:25;;;;;;;10.60;7.18;;;8.90;43.00;;;;;;5092077;28;20206;-50
2023/01/04 05:16:51;;;;;;;9.57;7.20;;;8.90;42.80;;;;;;5092297;28;20192;-50
2023/01/04 05:19:17;;;;;;;7.73;6.87;;;8.90;43.00;;;;;;5092176;28;20677;-50
2023/01/04 05:21:43;;;;;;;10.70;7.60;;;8.90;42.90;;;;;;5092435;28;20160;-50
2023/01/04 05:24:11;;;;;;;9.67;6.77;;;8.90;42.90;;;;;;5092112;28;20394;-50
2023/01/04 05:26:37;;;;;;;9.38;7.28;;;8.90;42.70;;;;;;5091986;28;20172;-50
2023/01/04 05:29:03;;;;;;;8.45;7.53;;;8.90;42.70;;;;;;5092139;28;20251;-50
2023/01/04 05:31:29;;;;;;;8.25;7.30;;;9.00;42.40;;;;;;5096295;28;20473;-51
2023/01/04 05:33:55;;;;;;;8.33;7.50;;;8.90;42.70;;;;;;5096337;28;20174;-50
2023/01/04 05:36:20;;;;;;;11.57;7.77;;;9.00;42.40;;;;;;5096098;28;20175;-51
2023/01/04 05:38:46;;;;;;;8.57;6.20;;;8.90;42.40;;;;;;5095907;28;20222;-51
2023/01/04 05:43:56;;;;;;;11.00;6.85;;;8.90;42.70;;;;;;5096156;28;20214;-50
2023/01/04 05:46:22;;;;;;;8.40;6.57;;;8.90;42.60;;;;;;5095772;28;20161;-50
2023/01/04 05:48:48;;;;;;;8.68;6.68;;;8.90;42.60;;;;;;5095998;28;20539;-51
2023/01/04 05:51:13;;;;;;;8.07;6.70;;;8.90;42.60;;;;;;5096024;28;20568;-50
2023/01/04 05:53:39;;;;;;;7.57;6.20;;;9.00;42.50;;;;;;5095897;28;20180;-51
2023/01/04 05:56:05;;;;;;;12.00;6.77;;;9.00;42.60;;;;;;5095535;28;20168;-51
2023/01/04 05:58:31;;;;;;;10.57;7.43;;;9.00;42.60;;;;;;5095681;28;20203;-49
2023/01/04 06:00:57;;;;;;;13.70;7.00;;;9.00;42.80;;;;;;5095799;28;20249;-50
2023/01/04 06:03:22;;;;;;;6.90;5.77;;;9.10;42.70;;;;;;5095679;28;20170;-51
2023/01/04 06:05:51;;;;;;;8.30;6.30;;;9.10;42.70;;;;;;5095498;28;20679;-50
2023/01/04 06:08:17;;;;;;;8.20;5.95;;;9.10;42.70;;;;;;5094215;28;20204;-50
2023/01/04 06:10:43;;;;;;;10.57;7.57;;;9.10;42.70;;;;;;5095537;28;20172;-50
2023/01/04 06:13:08;;;;;;;9.67;6.47;;;9.10;42.80;;;;;;5095575;28;20245;-50
2023/01/04 06:15:34;;;;;;;8.57;6.33;;;9.10;42.70;;;;;;5095383;28;20262;-50
2023/01/04 06:18:00;;;;;;;12.20;6.80;;;9.10;42.60;;;;;;5095385;28;20208;-51
2023/01/04 06:20:26;;;;;;;9.83;5.30;;;9.10;42.60;;;;;;5095452;28;20164;-50
2023/01/04 06:22:51;;;;;;;8.97;7.00;;;9.20;42.50;;;;;;5095376;28;20594;-50
2023/01/04 06:25:17;;;;;;;8.20;6.30;;;9.20;42.30;;;;;;5095541;28;20173;-51
2023/01/04 06:27:43;;;;;;;8.13;5.70;;;9.20;42.50;;;;;;5095100;28;20225;-50
2023/01/04 06:30:09;;;;;;;7.80;6.00;;;9.20;42.40;;;;;;5095282;28;20739;-50
2023/01/04 06:32:35;;;;;;;9.20;5.75;;;9.20;42.30;;;;;;5095218;28;20164;-50
2023/01/04 06:35:01;;;;;;;8.60;6.43;;;9.30;42.30;;;;;;5094894;28;20199;-51
2023/01/04 06:37:27;;;;;;;5.80;5.20;;;9.30;42.30;;;;;;5094857;28;20207;-50
2023/01/04 06:39:53;;;;;;;7.22;5.88;;;9.30;42.30;;;;;;5094663;28;20272;-50
2023/01/04 06:45:03;;;;;;;6.85;5.47;;;9.40;42.20;;;;;;5094823;28;20210;-50
2023/01/04 06:47:29;;;;;;;8.45;6.57;;;9.40;42.00;;;;;;5094784;28;20192;-51
2023/01/04 06:49:55;;;;;;;7.03;5.80;;;9.40;42.00;;;;;;5094837;28;20222;-50
2023/01/04 06:52:20;;;;;;;10.87;7.47;;;9.40;42.00;;;;;;5094688;28;20168;-50
2023/01/04 06:54:46;;;;;;;7.57;6.47;;;9.40;42.00;;;;;;5094543;28;20172;-51
2023/01/04 06:57:12;;;;;;;8.10;6.20;;;9.40;42.80;;;;;;5094705;28;20229;-50
2023/01/04 06:59:38;;;;;;;7.78;6.97;;;9.50;42.10;;;;;;5094729;28;20192;-50
2023/01/04 07:02:04;;;;;;;11.97;7.70;;;9.50;42.80;;;;;;5094649;28;20227;-51
2023/01/04 07:04:29;;;;;;;11.97;8.43;;;9.50;42.10;;;;;;5094406;28;20201;-51
2023/01/04 07:06:56;;;;;;;10.17;7.30;;;9.40;42.00;;;;;;5094340;28;20265;-51
2023/01/04 07:09:22;;;;;;;12.25;8.68;;;9.50;42.00;;;;;;5094520;28;20173;-50
2023/01/04 07:11:48;;;;;;;12.40;7.90;;;9.60;41.90;;;;;;5094429;28;20171;-51
2023/01/04 07:14:14;;;;;;;10.43;7.40;;;9.60;41.70;;;;;;5094285;28;20411;-51
2023/01/04 07:16:39;;;;;;;10.90;8.00;;;9.60;41.70;;;;;;5094147;28;20172;-51
2023/01/04 07:19:07;;;;;;;10.80;7.60;;;9.60;41.60;;;;;;5094251;28;20188;-51
2023/01/04 07:21:33;;;;;;;10.73;7.82;;;9.70;41.50;;;;;;5092795;28;20198;-51
2023/01/04 07:23:59;;;;;;;20.70;8.60;;;9.70;41.40;;;;;;5094163;28;20624;-51
2023/01/04 07:26:24;;;;;;;11.40;7.70;;;9.70;41.30;;;;;;5093965;28;20232;-51
2023/01/04 07:31:34;;;;;;;8.23;6.82;;;9.80;41.20;;;;;;5094116;28;20192;-51
2023/01/04 07:34:00;;;;;;;8.20;6.60;;;9.80;41.00;;;;;;5093902;28;20643;-51
2023/01/04 07:36:26;;;;;;;9.10;6.17;;;9.80;40.90;;;;;;5093715;28;20172;-51
2023/01/04 07:38:51;;;;;;;10.17;7.27;;;9.90;41.00;;;;;;5093829;28;20273;-51
2023/01/04 07:41:17;;;;;;;8.03;6.30;;;9.90;40.90;;;;;;5093893;28;20294;-51
2023/01/04 07:43:44;;;;;;;8.30;6.70;;;10.00;40.80;;;;;;5093821;28;20184;-51
2023/01/04 07:46:09;;;;;;;9.43;6.18;;;10.00;40.70;;;;;;5093552;28;20172;-51
2023/01/04 07:48:35;;;;;;;11.03;6.53;;;10.00;40.70;;;;;;5093578;28;20206;-51
2023/01/04 07:51:01;;;;;;;9.07;6.20;;;10.10;40.60;;;;;;5093643;28;20179;-51
2023/01/04 07:53:27;;;;;;;10.10;5.33;;;10.10;40.40;;;;;;5092742;28;20175;-51
2023/01/04 07:55:59;;;;;;;7.00;5.17;;;10.20;40.10;;;;;;5093563;28;20251;-51
2023/01/04 07:58:26;;;;;;;6.50;4.53;;;10.20;39.80;;;;;;5093609;28;20250;-51
2023/01/04 08:00:52;;;;;;;7.63;5.90;;;10.30;40.10;;;;;;5093480;28;20165;-51
2023/01/04 08:03:17;;;;;;;6.07;5.20;;;10.30;39.90;;;;;;5093386;28;20208;-52
2023/01/04 08:05:43;;;;;;;6.50;5.10;;;10.40;39.70;;;;;;5093254;28;20191;-51
2023/01/04 08:08:09;;;;;;;7.10;5.40;;;10.40;39.70;;;;;;5093254;28;20660;-52
2023/01/04 08:10:35;;;;;;;13.17;5.90;;;10.50;39.70;;;;;;5093341;28;20246;-51
2023/01/04 08:13:00;;;;;;;7.28;5.25;;;10.50;39.50;;;;;;5093288;28;20255;-51
2023/01/04 08:15:26;;;;;;;5.57;4.30;;;10.50;39.60;;;;;;5093059;28;20207;-50
2023/01/04 08:17:52;;;;;;;4.47;3.93;;;10.50;39.60;;;;;;5092939;28;20263;-51
2023/01/04 08:20:18;;;;;;;7.27;4.50;;;10.60;39.50;;;;;;5093073;28;20408;-51
2023/01/04 08:22:44;;;;;;;7.18;4.55;;;10.70;39.50;;;;;;5093040;28;20935;-51
2023/01/04 08:25:10;;;;;;;8.20;4.50;;;10.70;39.50;;;;;;5092841;28;20172;-52
2023/01/04 08:27:35;;;;;;;8.20;4.57;;;10.70;39.70;;;;;;5092897;28;20198;-51
2023/01/04 08:30:01;;;;;;;7.80;5.53;;;10.80;39.90;;;;;;5092983;28;20172;-51
2023/01/04 08:32:27;;;;;;;8.63;5.57;;;10.80;39.90;;;;;;5092792;28;20179;-51
2023/01/04 08:34:53;;;;;;;5.63;4.13;;;10.80;40.00;;;;;;5092922;28;20467;-51
2023/01/04 08:37:19;;;;;;;5.90;4.30;;;10.80;39.70;;;;;;5092716;28;20450;-51
2023/01/04 08:39:45;;;;;;;5.18;4.05;;;10.80;40.00;;;;;;5092693;28;20553;-51
2023/01/04 08:42:11;;;;;;;5.47;4.05;;;10.90;40.40;;;;;;5092731;28;20198;-51
2023/01/04 08:44:37;;;;;;;6.40;4.47;;;10.80;40.10;;;;;;5092477;28;20170;-51
2023/01/04 08:47:03;;;;;;;11.53;4.17;;;10.90;40.10;;;;;;5092508;28;20189;-51
2023/01/04 08:49:29;;;;;;;6.00;3.80;;;10.90;40.30;;;;;;5092548;28;20843;-51
2023/01/04 08:51:55;;;;;;;6.17;3.87;;;10.90;40.40;;;;;;5092588;28;20424;-51
2023/01/04 08:54:21;;;;;;;3.93;2.87;;;10.90;40.60;;;;;;5092452;28;20539;-51
2023/01/04 08:56:47;;;;;;;5.35;4.00;;;11.00;40.70;;;;;;5092474;28;20190;-51
2023/01/04 08:59:13;;;;;;;4.93;3.67;;;11.00;40.60;;;;;;5092455;28;20200;-51
2023/01/04 09:01:39;;;;;;;4.22;3.42;;;11.10;40.70;;;;;;5092353;28;20179;-51
2023/01/04 09:04:05;;;;;;;4.70;3.35;;;11.20;40.30;;;;;;5092206;28;20170;-51
2023/01/04 09:06:31;;;;;;;7.05;4.40;;;11.20;40.20;;;;;;5092131;28;20164;-51
2023/01/04 09:08:58;;;;;;;5.43;3.63;;;11.20;40.10;;;;;;5092317;28;20183;-51
2023/01/04 09:11:24;;;;;;;6.28;3.88;;;11.30;40.10;;;;;;5092233;28;20928;-51
2023/01/04 09:13:58;;;;;;;5.75;3.40;;;11.30;40.10;;;;;;5092315;28;20249;-51
2023/01/04 09:16:24;;;;;;;7.47;6.72;;;11.30;40.50;;;;;;5092014;28;20709;-51
2023/01/04 09:18:50;;;;;;;10.02;4.18;;;11.30;40.30;;;;;;5092151;28;20202;-51
2023/01/04 09:21:20;;;;;;;2.43;1.77;;;11.30;40.20;;;;;;5092212;28;20167;-51
2023/01/04 09:23:46;;;;;;;2.75;1.65;;;11.30;38.90;;;;;;5092221;28;20900;-51
2023/01/04 09:26:15;;;;;;;2.30;1.83;;;11.40;39.60;;;;;;5091973;28;20179;-51
2023/01/04 09:28:42;;;;;;;6.78;3.05;;;11.40;38.70;;;;;;5091997;28;20187;-52
2023/01/04 09:31:10;;;;;;;2.25;1.42;;;11.50;38.90;;;;;;5092136;28;20172;-51
2023/01/04 09:33:36;;;;;;;1.75;1.10;;;11.50;38.60;;;;;;5092277;28;20190;-52
2023/01/04 09:36:06;;;;;;;6.00;1.47;;;11.60;39.00;;;;;;5091892;28;20601;-51
2023/01/04 09:38:33;;;;;;;1.23;0.90;;;11.80;39.40;;;;;;5091807;28;20210;-51
2023/01/04 09:43:48;;;;;;;3.30;1.92;;;11.90;39.20;;;;;;5110746;28;20214;-50
2023/01/04 09:46:23;;;;;;;1.73;1.00;;;12.00;39.90;;;;;;5112200;28;20167;-50
2023/01/04 09:48:55;;;;;;;4.65;1.55;;;11.90;38.70;;;;;;5112164;28;20174;-50
2023/01/04 09:51:25;;;;;;;1.60;0.73;;;12.00;39.10;;;;;;5112278;28;20194;-50
2023/01/04 09:54:01;;;;;;;2.67;1.35;;;12.00;39.20;;;;;;5112353;28;20696;-50
2023/01/04 09:56:33;;;;;;;2.25;0.70;;;12.10;39.60;;;;;;5112322;28;20228;-50
2023/01/04 09:59:09;;;;;;;1.60;0.80;;;12.10;39.70;;;;;;5112194;28;20681;-50
2023/01/04 10:01:47;;;;;;;1.40;0.75;;;12.10;40.10;;;;;;5112137;28;20661;-50
2023/01/04 10:04:21;;;;;;;2.17;1.10;;;12.10;38.90;;;;;;5112049;28;20199;-50
2023/01/04 10:06:47;;;;;;;3.10;1.92;;;12.20;38.90;;;;;;5112099;28;20633;-50
2023/01/04 10:09:15;;;;;;;1.37;0.80;;;12.30;39.30;;;;;;5112295;28;20198;-50
2023/01/04 10:12:13;;;;;;;1.63;0.80;;;12.30;39.40;;;;;;5112439;28;20206;-50
2023/01/04 10:15:05;;;;;;;2.50;1.30;;;12.40;39.10;;;;;;5111762;28;20588;-50
2023/01/04 10:18:00;;;;;;;1.55;0.95;;;12.40;39.20;;;;;;5116082;28;20227;-50
2023/01/04 10:20:44;;;;;;;2.08;1.17;;;12.50;39.60;;;;;;5112714;28;20203;-50
2023/01/04 10:23:21;;;;;;;2.30;1.10;;;12.40;39.80;;;;;;5115771;28;20197;-50
2023/01/04 10:26:05;;;;;;;2.03;1.10;;;12.40;40.10;;;;;;5115629;28;20263;-49
2023/01/04 10:28:42;;;;;;;1.60;0.68;;;12.40;40.30;;;;;;5115773;28;20171;-50
2023/01/04 10:31:43;;;;;;;2.40;1.20;;;12.30;41.50;;;;;;5115506;28;20179;-50
2023/01/04 10:34:30;;;;;;;1.40;0.80;;;12.20;42.10;;;;;;5104616;28;20191;-49
2023/01/04 10:37:28;;;;;;;2.65;2.05;;;12.20;42.70;;;;;;5115625;28;20171;-50
2023/01/04 10:39:55;;;;;;;1.98;1.27;;;12.30;43.40;;;;;;5115373;28;20208;-50
2023/01/04 10:42:46;;;;;;;2.80;1.10;;;12.40;42.40;;;;;;5115263;28;20205;-49
2023/01/04 10:45:38;;;;;;;2.08;0.98;;;12.40;43.50;;;;;;5115358;28;20170;-50
2023/01/04 10:48:07;;;;;;;2.78;0.70;;;12.40;43.30;;;;;;5112234;28;20195;-50
2023/01/04 10:50:50;;;;;;;1.90;0.93;;;12.10;44.90;;;;;;5115262;28;20523;-50
2023/01/04 10:53:24;;;;;;;2.20;0.95;;;12.10;45.20;;;;;;5115155;28;20194;-50
2023/01/04 10:56:01;;;;;;;1.65;0.75;;;11.90;45.60;;;;;;5115146;27;20185;-50
2023/01/04 10:58:42;;;;;;;1.80;0.73;;;12.00;45.70;;;;;;5115039;28;20186;-50
2023/01/04 11:01:32;;;;;;;1.35;0.73;;;11.90;46.20;;;;;;5115407;28;20179;-50
2023/01/04 11:04:15;;;;;;;2.33;0.95;;;12.00;46.10;;;;;;5115088;28;20198;-51
2023/01/04 11:06:40;;;;;;;3.00;0.75;;;12.10;46.00;;;;;;5114895;27;20280;-50
2023/01/04 11:09:17;;;;;;;2.50;1.40;;;12.10;45.70;;;;;;5115065;28;20184;-51
2023/01/04 11:11:45;;;;;;;2.70;1.30;;;12.20;45.50;;;;;;5115071;28;20201;-50
2023/01/04 11:14:12;;;;;;;1.55;0.98;;;12.30;45.60;;;;;;5114787;28;20175;-50
2023/01/04 11:16:45;;;;;;;4.13;1.13;;;12.20;45.30;;;;;;5114660;28;20179;-50
2023/01/04 11:19:11;;;;;;;2.47;1.38;;;12.20;45.50;;;;;;5114598;28;20290;-50
2023/01/04 11:21:47;;;;;;;2.15;0.95;;;12.30;45.90;;;;;;5114784;28;20554;-50
2023/01/04 11:24:15;;;;;;;1.98;1.02;;;12.30;45.30;;;;;;5114647;28;20192;-50
2023/01/04 11:26:43;;;;;;;1.40;0.70;;;12.40;45.30;;;;;;5114086;28;20167;-50
2023/01/04 11:29:52;;;;;;;1.60;0.90;;;12.40;44.70;;;;;;5114290;28;20653;-51
2023/01/04 11:32:22;;;;;;;3.67;1.60;;;12.50;44.70;;;;;;5111184;28;20284;-51
2023/01/04 11:34:51;;;;;;;1.67;1.10;;;12.50;44.50;;;;;;5114255;28;20656;-51
2023/01/04 11:37:38;;;;;;;2.83;1.13;;;12.60;44.50;;;;;;5114436;28;20208;-50
2023/01/04 11:40:18;;;;;;;1.80;0.93;;;12.60;44.20;;;;;;5114092;28;20282;-51
2023/01/04 11:42:45;;;;;;;1.50;0.73;;;12.70;44.00;;;;;;5114275;28;20203;-51
2023/01/04 11:45:24;;;;;;;1.60;1.10;;;12.80;44.00;;;;;;5114056;28;20669;-50
2023/01/04 11:47:53;;;;;;;3.08;0.90;;;12.80;44.30;;;;;;5114288;28;20174;-51
2023/01/04 11:50:44;;;;;;;4.25;1.10;;;12.80;44.20;;;;;;5114074;28;20179;-51
2023/01/04 11:53:35;;;;;;;1.73;1.40;;;12.80;44.60;;;;;;5114036;28;20200;-51
2023/01/04 11:56:15;;;;;;;1.95;0.85;;;12.80;45.00;;;;;;5113931;28;20175;-50
2023/01/04 11:58:43;;;;;;;2.13;0.70;;;12.80;44.20;;;;;;5113810;28;20244;-51
2023/01/04 12:01:21;;;;;;;1.95;1.00;;;12.80;44.70;;;;;;5113810;28;20242;-50
2023/01/04 12:03:47;;;;;;;2.17;1.20;;;12.90;44.40;;;;;;5114015;28;20186;-50
2023/01/04 12:06:19;;;;;;;1.40;0.87;;;12.70;44.60;;;;;;5113872;28;20171;-51
2023/01/04 12:08:46;;;;;;;2.00;0.90;;;12.70;44.50;;;;;;5113765;28;20904;-50
2023/01/04 12:11:35;;;;;;;1.88;1.17;;;12.80;44.30;;;;;;5113621;28;20175;-50
2023/01/04 12:14:02;;;;;;;2.00;1.33;;;12.90;44.20;;;;;;5113672;28;20511;-51
2023/01/04 12:16:42;;;;;;;3.78;1.25;;;12.90;44.70;;;;;;5113523;28;20634;-51
2023/01/04 12:19:14;;;;;;;4.63;1.30;;;12.90;44.40;;;;;;5113539;28;20202;-50
2023/01/04 12:21:44;;;;;;;2.20;1.17;;;12.80;44.60;;;;;;5113348;28;20194;-51
2023/01/04 12:24:18;;;;;;;2.45;1.10;;;12.70;45.00;;;;;;5113635;28;20193;-50
2023/01/04 12:26:44;;;;;;;3.00;1.63;;;12.80;45.20;;;;;;5113542;28;20327;-50
2023/01/04 12:29:22;;;;;;;3.30;1.27;;;12.80;45.00;;;;;;5113379;28;20709;-50
2023/01/04 12:32:15;;;;;;;3.63;1.20;;;12.90;45.20;;;;;;5113174;28;20287;-51
2023/01/04 12:34:43;;;;;;;3.15;1.20;;;12.90;44.70;;;;;;5081908;28;20178;-51
2023/01/04 12:37:30;;;;;;;1.25;0.68;;;12.90;45.00;;;;;;5113360;28;20183;-51
2023/01/04 12:39:55;;;;;;;2.47;1.60;;;12.90;44.40;;;;;;5112643;28;20225;-50
2023/01/04 12:42:25;;;;;;;2.03;1.13;;;13.00;44.70;;;;;;5112859;28;20689;-50
2023/01/04 12:44:51;;;;;;;4.25;1.90;;;13.00;44.80;;;;;;5113000;28;20171;-50
2023/01/04 12:50:06;;;;;;;1.85;0.85;;;12.90;45.00;;;;;;5113116;28;20180;-51
2023/01/04 12:52:31;;;;;;;2.17;1.17;;;12.80;45.60;;;;;;5112974;28;20563;-51
2023/01/04 12:55:00;;;;;;;6.40;1.63;;;12.80;45.00;;;;;;5112698;28;20171;-50
2023/01/04 12:57:34;;;;;;;3.85;1.80;;;12.90;45.20;;;;;;5112802;28;20653;-51
2023/01/04 13:00:05;;;;;;;4.05;1.85;;;12.90;45.30;;;;;;5112786;28;20249;-51
2023/01/04 13:02:42;;;;;;;5.70;2.10;;;12.90;45.20;;;;;;5112770;28;20187;-51
2023/01/04 13:05:17;;;;;;;5.10;2.25;;;13.00;45.80;;;;;;5112548;28;20186;-51
2023/01/04 13:07:45;;;;;;;1.77;1.20;;;13.00;45.40;;;;;;5112956;28;20223;-51
2023/01/04 13:10:17;;;;;;;1.92;1.27;;;12.90;45.20;;;;;;5112709;28;20178;-51
2023/01/04 13:12:46;;;;;;;4.80;1.80;;;13.00;45.20;;;;;;5112544;28;20695;-51
2023/01/04 13:15:32;;;;;;;2.75;1.50;;;13.00;45.20;;;;;;5112466;28;20167;-51
2023/01/04 13:17:58;;;;;;;2.38;1.25;;;13.10;45.10;;;;;;5112495;28;20171;-51
2023/01/04 13:20:29;;;;;;;1.57;1.07;;;13.10;45.30;;;;;;5112611;28;20189;-50
2023/01/04 13:22:58;;;;;;;3.53;2.05;;;13.10;45.20;;;;;;5112356;28;20935;-50
2023/01/04 13:25:25;;;;;;;3.45;2.33;;;13.20;45.60;;;;;;5112482;28;20197;-51
2023/01/04 13:27:55;;;;;;;5.15;2.53;;;13.20;45.10;;;;;;5112526;28;20190;-51
2023/01/04 13:30:29;;;;;;;1.63;1.17;;;13.30;45.60;;;;;;5112454;28;20577;-50
2023/01/04 13:32:55;;;;;;;6.40;1.40;;;13.50;45.50;;;;;;5112420;28;20235;-51
2023/01/04 13:35:21;;;;;;;1.97;1.53;;;13.60;45.30;;;;;;5112472;28;20160;-51
2023/01/04 13:37:49;;;;;;;2.13;1.13;;;13.70;44.90;;;;;;5112523;28;20518;-51
2023/01/04 13:40:23;;;;;;;2.10;0.88;;;13.60;44.30;;;;;;5112290;28;20453;-51
2023/01/04 13:43:10;;;;;;;2.95;1.20;;;13.60;44.30;;;;;;5112094;28;20199;-51
2023/01/04 13:45:50;;;;;;;2.15;1.30;;;13.40;44.50;;;;;;5112127;28;20523;-50
2023/01/04 13:48:19;;;;;;;1.88;1.20;;;13.50;44.70;;;;;;5112351;28;20604;-51
2023/01/04 13:51:01;;;;;;;1.90;1.08;;;13.50;44.30;;;;;;5113596;28;20239;-50
2023/01/04 13:53:29;;;;;;;2.80;1.23;;;13.50;44.60;;;;;;5116389;28;20168;-51
2023/01/04 13:55:57;;;;;;;2.33;1.15;;;13.50;44.60;;;;;;5116198;28;20198;-51
2023/01/04 13:58:25;;;;;;;3.28;0.93;;;13.60;44.50;;;;;;5114921;28;20633;-51
2023/01/04 14:01:11;;;;;;;1.45;0.77;;;13.50;44.40;;;;;;5116301;27;20168;-51